createdAt,value
2022-08-10T00:01:55.558Z,3.47
2022-08-10T00:04:26.423Z,3.97
2022-08-10T00:06:59.201Z,4.28
2022-08-10T00:09:28.277Z,4.05
2022-08-10T00:11:57.368Z,3.60
2022-08-10T00:14:26.494Z,4.15
2022-08-10T00:16:55.645Z,3.75
2022-08-10T00:19:28.594Z,3.60
2022-08-10T00:22:17.705Z,3.85
2022-08-10T00:24:46.858Z,3.78
2022-08-10T00:27:57.933Z,4.55
2022-08-10T00:30:05.963Z,4.47
2022-08-10T00:32:35.183Z,5.25
2022-08-10T00:35:06.669Z,5.10
2022-08-10T00:40:08.225Z,4.80
2022-08-10T00:42:37.408Z,4.57
2022-08-10T00:45:07.511Z,4.30
2022-08-10T00:47:37.854Z,4.13
2022-08-10T00:50:10.092Z,4.30
2022-08-10T00:52:40.351Z,4.05
2022-08-10T00:55:09.934Z,4.32
2022-08-10T00:57:40.647Z,4.05
2022-08-10T01:00:10.977Z,3.75
2022-08-10T01:02:40.728Z,4.30
2022-08-10T01:05:14.503Z,4.10
2022-08-10T01:08:04.284Z,4.10
2022-08-10T01:10:42.809Z,4.00
2022-08-10T01:13:17.972Z,3.80
2022-08-10T01:15:55.482Z,3.90
2022-08-10T01:18:37.811Z,3.78
2022-08-10T01:21:35.403Z,3.60
2022-08-10T01:24:17.912Z,3.35
2022-08-10T01:27:14.606Z,3.75
2022-08-10T01:30:07.988Z,3.67
2022-08-10T01:32:48.946Z,3.42
2022-08-10T01:35:25.803Z,3.85
2022-08-10T01:38:03.611Z,3.53
2022-08-10T01:40:36.434Z,3.65
2022-08-10T01:43:09.907Z,3.60
2022-08-10T01:45:46.299Z,3.85
2022-08-10T01:48:31.409Z,3.50
2022-08-10T01:51:10.387Z,3.40
2022-08-10T01:53:44.220Z,3.78
2022-08-10T01:56:16.614Z,3.72
2022-08-10T01:58:48.849Z,3.65
2022-08-10T02:01:24.470Z,3.33
2022-08-10T02:04:03.979Z,3.63
2022-08-10T02:09:09.068Z,3.53
2022-08-10T02:12:06.435Z,3.78
2022-08-10T02:14:34.645Z,4.05
2022-08-10T02:17:08.939Z,3.58
2022-08-10T02:20:03.299Z,3.80
2022-08-10T02:22:36.027Z,3.10
2022-08-10T02:25:09.650Z,3.70
2022-08-10T02:27:59.403Z,3.40
2022-08-10T02:30:30.270Z,3.75
2022-08-10T02:33:02.666Z,3.63
2022-08-10T02:35:40.552Z,3.95
2022-08-10T02:38:58.299Z,3.80
2022-08-10T02:45:13.076Z,3.70
2022-08-10T02:45:21.692Z,3.50
2022-08-10T02:47:18.793Z,3.20
2022-08-10T02:49:55.869Z,3.50
2022-08-10T02:52:30.571Z,3.33
2022-08-10T02:55:17.224Z,3.30
2022-08-10T02:58:16.615Z,3.50
2022-08-10T03:00:46.635Z,3.55
2022-08-10T03:03:21.514Z,3.30
2022-08-10T03:05:56.696Z,3.90
2022-08-10T03:08:29.764Z,3.47
2022-08-10T03:11:03.370Z,3.22
2022-08-10T03:13:34.912Z,3.72
2022-08-10T03:16:06.250Z,3.47
2022-08-10T03:18:36.333Z,3.70
2022-08-10T03:21:11.819Z,3.70
2022-08-10T03:23:44.128Z,3.63
2022-08-10T03:26:20.321Z,3.92
2022-08-10T03:28:50.123Z,3.95
2022-08-10T03:31:19.806Z,3.58
2022-08-10T03:33:49.412Z,3.72
2022-08-10T03:36:43.573Z,3.75
2022-08-10T03:39:09.340Z,3.38
2022-08-10T03:41:41.807Z,3.92
2022-08-10T03:44:26.243Z,3.53
2022-08-10T03:46:56.488Z,3.60
2022-08-10T03:49:28.129Z,3.63
2022-08-10T03:51:59.778Z,3.78
2022-08-10T03:54:29.342Z,3.80
2022-08-10T03:56:58.557Z,4.18
2022-08-10T03:59:28.131Z,4.03
2022-08-10T04:02:44.495Z,4.40
2022-08-10T04:04:49.327Z,3.60
2022-08-10T04:07:20.267Z,3.97
2022-08-10T04:09:55.047Z,4.10
2022-08-10T04:12:24.914Z,3.58
2022-08-10T04:14:54.140Z,3.65
2022-08-10T04:18:04.194Z,3.78
2022-08-10T04:20:19.775Z,4.20
2022-08-10T04:22:54.633Z,3.63
2022-08-10T04:25:25.318Z,3.58
2022-08-10T04:27:55.397Z,4.22
2022-08-10T04:30:27.832Z,3.85
2022-08-10T04:32:59.855Z,3.72
2022-08-10T04:35:30.322Z,4.10
2022-08-10T04:38:03.333Z,3.88
2022-08-10T04:40:32.592Z,4.22
2022-08-10T04:43:08.943Z,4.05
2022-08-10T04:45:49.796Z,3.65
2022-08-10T04:48:40.414Z,4.00
2022-08-10T04:51:18.320Z,3.97
2022-08-10T04:54:06.168Z,3.88
2022-08-10T04:56:37.475Z,3.60
2022-08-10T04:59:07.620Z,3.80
2022-08-10T05:01:37.744Z,3.70
2022-08-10T05:04:36.093Z,4.15
2022-08-10T05:07:16.323Z,3.50
2022-08-10T05:10:02.867Z,3.70
2022-08-10T05:12:36.382Z,3.50
2022-08-10T05:15:08.498Z,3.78
2022-08-10T05:17:38.322Z,3.38
2022-08-10T05:20:09.570Z,3.88
2022-08-10T05:22:41.785Z,3.83
2022-08-10T05:25:14.246Z,3.72
2022-08-10T05:27:44.761Z,3.60
2022-08-10T05:30:17.014Z,3.70
2022-08-10T05:32:56.209Z,3.75
2022-08-10T05:35:55.105Z,3.90
2022-08-10T05:38:21.545Z,4.10
2022-08-10T05:40:52.229Z,3.88
2022-08-10T05:43:23.019Z,4.00
2022-08-10T05:46:16.757Z,4.30
2022-08-10T05:48:59.297Z,3.53
2022-08-10T05:51:31.139Z,3.88
2022-08-10T05:54:05.956Z,3.70
2022-08-10T05:56:54.191Z,4.10
2022-08-10T06:00:11.102Z,3.88
2022-08-10T06:02:31.235Z,3.88
2022-08-10T06:05:06.330Z,3.40
2022-08-10T06:07:39.071Z,3.40
2022-08-10T06:10:12.788Z,3.72
2022-08-10T06:12:55.630Z,3.80
2022-08-10T06:15:45.638Z,3.42
2022-08-10T06:18:16.266Z,3.28
2022-08-10T06:20:47.662Z,3.27
2022-08-10T06:26:11.037Z,3.10
2022-08-10T06:28:39.273Z,2.97
2022-08-10T06:31:10.602Z,3.30
2022-08-10T06:33:40.470Z,3.17
2022-08-10T06:36:10.693Z,2.90
2022-08-10T06:38:41.888Z,3.25
2022-08-10T06:41:19.991Z,3.03
2022-08-10T06:43:57.994Z,3.28
2022-08-10T06:46:29.534Z,3.13
2022-08-10T06:49:02.638Z,3.20
2022-08-10T06:51:35.501Z,2.97
2022-08-10T06:54:07.725Z,2.83
2022-08-10T06:56:50.924Z,2.55
2022-08-10T06:59:41.721Z,2.53
2022-08-10T07:02:14.228Z,2.40
2022-08-10T07:04:47.779Z,2.47
2022-08-10T07:07:21.620Z,2.42
2022-08-10T07:09:52.916Z,2.33
2022-08-10T07:12:25.485Z,2.47
2022-08-10T07:14:58.239Z,2.28
2022-08-10T07:17:28.894Z,2.35
2022-08-10T07:20:00.594Z,2.30
2022-08-10T07:23:50.818Z,2.20
2022-08-10T07:25:25.285Z,2.60
2022-08-10T07:27:58.545Z,2.40
2022-08-10T07:30:35.120Z,2.25
2022-08-10T07:33:05.933Z,2.20
2022-08-10T07:35:42.868Z,2.30
2022-08-10T07:38:22.207Z,1.85
2022-08-10T07:40:54.372Z,1.88
2022-08-10T07:45:59.017Z,1.98
2022-08-10T07:48:31.191Z,1.90
2022-08-10T07:51:02.915Z,1.95
2022-08-10T07:53:34.973Z,1.80
2022-08-10T07:56:17.000Z,2.25
2022-08-10T07:58:58.946Z,2.08
2022-08-10T08:01:33.734Z,2.15
2022-08-10T08:04:05.436Z,2.47
2022-08-10T08:06:41.952Z,2.13
2022-08-10T08:09:12.031Z,2.22
2022-08-10T08:11:44.505Z,2.05
2022-08-10T08:14:15.909Z,1.92
2022-08-10T08:24:07.518Z,1.95
2022-08-10T08:24:59.230Z,2.05
2022-08-10T08:27:29.673Z,2.00
2022-08-10T08:29:59.556Z,2.00
2022-08-10T08:32:32.915Z,3.08
2022-08-10T08:35:06.524Z,3.22
2022-08-10T08:38:29.954Z,2.97
2022-08-10T08:40:30.379Z,3.30
2022-08-10T08:43:25.494Z,3.20
2022-08-10T08:46:28.634Z,2.97
2022-08-10T08:50:07.536Z,2.70
2022-08-10T08:52:36.561Z,2.70
2022-08-10T08:56:03.884Z,2.90
2022-08-10T08:58:21.623Z,2.83
2022-08-10T09:00:58.992Z,2.67
2022-08-10T09:04:05.917Z,2.70
2022-08-10T09:07:39.275Z,2.90
2022-08-10T09:10:04.568Z,3.05
2022-08-10T09:12:44.877Z,2.90
2022-08-10T09:15:41.068Z,2.55
2022-08-10T09:18:19.196Z,2.60
2022-08-10T09:20:52.458Z,2.40
2022-08-10T09:24:01.694Z,2.20
2022-08-10T09:26:22.628Z,2.30
2022-08-10T09:29:11.750Z,2.25
2022-08-10T09:31:55.853Z,2.80
2022-08-10T09:36:26.172Z,3.22
2022-08-10T09:38:02.721Z,3.20
2022-08-10T09:40:58.963Z,3.58
2022-08-10T09:43:48.570Z,3.25
2022-08-10T09:46:27.658Z,3.17
2022-08-10T09:49:06.698Z,3.45
2022-08-10T09:51:47.064Z,3.22
2022-08-10T09:54:31.478Z,3.25
2022-08-10T09:57:41.523Z,3.38
2022-08-10T10:02:47.355Z,3.72
2022-08-10T10:05:28.444Z,3.70
2022-08-10T10:08:08.579Z,3.50
2022-08-10T10:10:47.529Z,3.28
2022-08-10T10:13:41.613Z,3.00
2022-08-10T10:16:29.950Z,2.88
2022-08-10T10:19:09.199Z,3.17
2022-08-10T10:21:55.047Z,3.42
2022-08-10T10:24:34.481Z,3.05
2022-08-10T10:27:16.487Z,3.20
2022-08-10T10:29:59.294Z,3.47
2022-08-10T10:32:42.681Z,3.30
2022-08-10T10:35:21.993Z,3.25
2022-08-10T10:38:01.276Z,3.53
2022-08-10T10:40:39.943Z,2.97
2022-08-10T10:43:22.406Z,3.22
2022-08-10T10:46:04.712Z,3.30
2022-08-10T10:48:41.568Z,3.17
2022-08-10T10:51:17.633Z,3.10
2022-08-10T10:53:53.385Z,3.22
2022-08-10T10:56:32.096Z,2.83
2022-08-10T10:59:33.318Z,3.15
2022-08-10T11:02:18.594Z,2.08
2022-08-10T11:04:59.150Z,2.30
2022-08-10T11:07:35.836Z,2.43
2022-08-10T11:10:32.414Z,2.20
2022-08-10T11:14:25.051Z,2.10
2022-08-10T11:16:09.991Z,2.25
2022-08-10T11:19:04.516Z,2.10
2022-08-10T11:21:44.156Z,2.55
2022-08-10T11:24:48.269Z,2.00
2022-08-10T11:27:31.572Z,1.55
2022-08-10T11:30:05.217Z,2.00
2022-08-10T11:32:48.402Z,2.63
2022-08-10T11:35:34.842Z,2.15
2022-08-10T11:38:31.924Z,2.85
2022-08-10T11:42:05.537Z,2.75
2022-08-10T11:44:09.512Z,2.67
2022-08-10T11:46:42.836Z,2.78
2022-08-10T11:49:14.856Z,2.40
2022-08-10T11:51:50.083Z,1.92
2022-08-10T11:54:27.056Z,1.60
2022-08-10T11:57:02.487Z,2.00
2022-08-10T11:59:57.994Z,2.00
2022-08-10T12:02:33.719Z,1.80
2022-08-10T12:05:08.054Z,1.80
2022-08-10T12:10:01.430Z,1.55
2022-08-10T12:10:33.782Z,1.70
2022-08-10T12:13:16.331Z,1.48
2022-08-10T12:15:54.735Z,1.55
2022-08-10T12:18:30.317Z,1.40
2022-08-10T12:21:03.986Z,1.92
2022-08-10T12:23:41.591Z,1.20
2022-08-10T12:26:16.041Z,1.20
2022-08-10T12:28:52.061Z,1.23
2022-08-10T12:31:27.984Z,1.20
2022-08-10T12:34:14.659Z,1.85
2022-08-10T12:36:48.187Z,2.65
2022-08-10T12:39:23.278Z,2.00
2022-08-10T12:41:57.988Z,2.15
2022-08-10T12:44:41.700Z,1.75
2022-08-10T12:47:21.415Z,2.00
2022-08-10T12:50:29.359Z,1.48
2022-08-10T12:52:53.638Z,1.50
2022-08-10T12:55:25.528Z,1.92
2022-08-10T12:57:57.378Z,1.85
2022-08-10T13:00:35.126Z,2.10
2022-08-10T13:03:07.725Z,1.70
2022-08-10T13:06:01.825Z,1.70
2022-08-10T13:08:56.200Z,1.33
2022-08-10T13:12:39.101Z,1.33
2022-08-10T13:14:24.299Z,1.50
2022-08-10T13:16:56.487Z,1.45
2022-08-10T13:19:54.489Z,1.23
2022-08-10T13:22:20.529Z,1.27
2022-08-10T13:24:55.647Z,1.10
2022-08-10T13:28:01.408Z,1.05
2022-08-10T13:30:33.427Z,1.50
2022-08-10T13:33:08.881Z,1.20
2022-08-10T13:35:38.741Z,1.38
2022-08-10T13:38:09.864Z,1.40
2022-08-10T13:40:40.777Z,1.40
2022-08-10T13:43:12.234Z,1.88
2022-08-10T13:45:47.820Z,1.30
2022-08-10T13:48:21.743Z,1.20
2022-08-10T13:50:52.769Z,1.50
2022-08-10T13:53:23.679Z,1.40
2022-08-10T13:55:57.409Z,1.70
2022-08-10T13:58:31.763Z,1.30
2022-08-10T14:01:02.842Z,1.52
2022-08-10T14:03:37.756Z,1.33
2022-08-10T14:06:08.858Z,1.38
2022-08-10T14:08:41.356Z,1.30
2022-08-10T14:11:15.716Z,1.80
2022-08-10T14:13:52.631Z,1.83
2022-08-10T14:16:22.378Z,1.40
2022-08-10T14:18:54.030Z,1.70
2022-08-10T14:21:23.463Z,2.35
2022-08-10T14:23:53.889Z,2.58
2022-08-10T14:26:27.192Z,2.72
2022-08-10T14:28:59.737Z,2.45
2022-08-10T14:31:33.827Z,2.90
2022-08-10T14:34:06.818Z,3.30
2022-08-10T14:36:43.398Z,3.15
2022-08-10T14:39:20.786Z,3.60
2022-08-10T14:42:03.854Z,3.67
2022-08-10T14:44:48.798Z,4.35
2022-08-10T14:48:03.244Z,3.88
2022-08-10T14:50:32.193Z,5.07
2022-08-10T14:53:09.665Z,4.40
2022-08-10T14:55:58.520Z,4.90
2022-08-10T14:58:34.125Z,4.43
2022-08-10T15:01:07.222Z,3.95
2022-08-10T15:03:59.160Z,3.78
2022-08-10T15:06:33.170Z,4.10
2022-08-10T15:09:05.547Z,3.85
2022-08-10T15:12:13.045Z,3.92
2022-08-10T15:14:43.118Z,4.50
2022-08-10T15:17:17.053Z,4.78
2022-08-10T15:20:02.353Z,4.28
2022-08-10T15:22:37.927Z,4.00
2022-08-10T15:25:18.661Z,3.63
2022-08-10T15:27:53.410Z,4.30
2022-08-10T15:30:31.593Z,4.05
2022-08-10T15:34:02.947Z,4.03
2022-08-10T15:36:35.057Z,3.43
2022-08-10T15:39:12.759Z,3.40
2022-08-10T15:41:58.679Z,3.60
2022-08-10T15:44:39.149Z,3.28
2022-08-10T15:47:12.311Z,3.60
2022-08-10T15:49:53.379Z,2.67
2022-08-10T15:52:39.968Z,3.05
2022-08-10T15:55:42.761Z,2.20
2022-08-10T15:58:14.077Z,2.25
2022-08-10T16:00:50.370Z,2.47
2022-08-10T16:03:27.366Z,2.33
2022-08-10T16:06:01.426Z,2.88
2022-08-10T16:08:56.667Z,2.15
2022-08-10T16:11:37.691Z,2.38
2022-08-10T16:14:15.211Z,2.45
2022-08-10T16:16:50.551Z,2.45
2022-08-10T16:19:25.158Z,2.50
2022-08-10T16:22:36.390Z,2.47
2022-08-10T16:24:58.455Z,2.00
2022-08-10T16:27:29.271Z,2.17
2022-08-10T16:30:02.426Z,2.17
2022-08-10T16:32:34.097Z,2.20
2022-08-10T16:35:09.351Z,2.28
2022-08-10T16:37:56.573Z,1.90
2022-08-10T16:40:30.390Z,2.05
2022-08-10T16:43:02.321Z,2.20
2022-08-10T16:45:35.712Z,1.88
2022-08-10T16:48:06.805Z,1.90
2022-08-10T16:50:41.922Z,1.90
2022-08-10T16:53:15.645Z,1.88
2022-08-10T16:55:50.646Z,2.20
2022-08-10T16:58:25.099Z,1.90
2022-08-10T17:00:55.313Z,2.05
2022-08-10T17:04:07.034Z,1.90
2022-08-10T17:06:23.667Z,2.30
2022-08-10T17:08:56.800Z,2.22
2022-08-10T17:11:33.627Z,2.40
2022-08-10T17:14:04.569Z,2.30
2022-08-10T17:16:39.853Z,1.92
2022-08-10T17:19:14.054Z,1.90
2022-08-10T17:21:51.345Z,1.95
2022-08-10T17:24:27.640Z,2.08
2022-08-10T17:26:59.076Z,2.10
2022-08-10T17:29:58.690Z,2.13
2022-08-10T17:32:31.394Z,2.10
2022-08-10T17:35:02.390Z,1.90
2022-08-10T17:37:37.602Z,2.05
2022-08-10T17:40:12.517Z,2.15
2022-08-10T17:42:42.285Z,1.95
2022-08-10T17:45:45.985Z,1.98
2022-08-10T17:48:09.473Z,1.88
2022-08-10T17:50:41.921Z,2.25
2022-08-10T17:53:16.781Z,1.70
2022-08-10T17:55:50.023Z,2.03
2022-08-10T17:58:21.292Z,2.00
2022-08-10T18:00:52.450Z,2.20
2022-08-10T18:03:25.473Z,2.00
2022-08-10T18:05:57.729Z,2.38
2022-08-10T18:08:29.757Z,1.92
2022-08-10T18:11:01.837Z,1.95
2022-08-10T18:13:55.363Z,2.03
2022-08-10T18:16:27.309Z,2.30
2022-08-10T18:19:00.588Z,1.80
2022-08-10T18:21:32.417Z,2.15
2022-08-10T18:24:04.976Z,2.50
2022-08-10T18:26:38.844Z,1.80
2022-08-10T18:29:10.901Z,2.10
2022-08-10T18:31:44.822Z,2.17
2022-08-10T18:34:20.957Z,1.80
2022-08-10T18:36:52.589Z,2.13
2022-08-10T18:39:25.531Z,2.22
2022-08-10T18:42:05.956Z,2.28
2022-08-10T18:44:39.088Z,2.30
2022-08-10T18:47:14.085Z,2.40
2022-08-10T18:50:00.095Z,2.47
2022-08-10T18:52:33.252Z,2.40
2022-08-10T18:55:13.934Z,2.00
2022-08-10T19:00:23.283Z,2.05
2022-08-10T19:03:12.097Z,2.22
2022-08-10T19:05:55.410Z,1.80
2022-08-10T19:08:57.321Z,1.90
2022-08-10T19:11:44.065Z,2.08
2022-08-10T19:14:19.381Z,1.88
2022-08-10T19:17:03.433Z,2.28
2022-08-10T19:19:41.295Z,1.98
2022-08-10T19:22:18.147Z,2.00
2022-08-10T19:24:55.759Z,2.10
2022-08-10T19:27:40.433Z,2.25
2022-08-10T19:30:16.363Z,2.58
2022-08-10T19:33:00.593Z,2.38
2022-08-10T19:36:04.231Z,2.13
2022-08-10T19:38:40.907Z,2.22
2022-08-10T19:41:32.488Z,2.20
2022-08-10T19:44:22.267Z,2.25
2022-08-10T19:47:03.349Z,2.25
2022-08-10T19:49:41.631Z,1.95
2022-08-10T19:52:19.708Z,2.50
2022-08-10T19:54:57.148Z,2.45
2022-08-10T19:57:34.555Z,2.20
2022-08-10T20:00:19.249Z,2.47
2022-08-10T20:03:10.633Z,2.60
2022-08-10T20:06:12.919Z,2.38
2022-08-10T20:08:56.754Z,2.30
2022-08-10T20:11:45.057Z,2.53
2022-08-10T20:14:22.991Z,2.40
2022-08-10T20:16:56.569Z,2.75
2022-08-10T20:19:54.046Z,2.55
2022-08-10T20:22:29.303Z,2.67
2022-08-10T20:25:05.208Z,2.20
2022-08-10T20:27:59.857Z,2.38
2022-08-10T20:30:30.136Z,2.53
2022-08-10T20:33:09.037Z,2.40
2022-08-10T20:35:49.715Z,2.35
2022-08-10T20:38:25.471Z,2.35
2022-08-10T20:41:07.402Z,2.22
2022-08-10T20:43:45.735Z,2.47
2022-08-10T20:46:23.674Z,2.53
2022-08-10T20:48:59.755Z,2.08
2022-08-10T20:51:57.500Z,2.35
2022-08-10T20:54:34.387Z,2.38
2022-08-10T20:57:55.192Z,2.70
2022-08-10T21:00:13.978Z,2.60
2022-08-10T21:05:52.721Z,2.60
2022-08-10T21:08:35.413Z,3.30
2022-08-10T21:11:12.003Z,4.00
2022-08-10T21:14:01.818Z,4.28
2022-08-10T21:16:41.388Z,4.20
2022-08-10T21:19:39.025Z,4.22
2022-08-10T21:24:52.291Z,3.80
2022-08-10T21:27:33.466Z,3.42
2022-08-10T21:30:09.244Z,3.58
2022-08-10T21:32:56.138Z,3.30
2022-08-10T21:35:37.378Z,2.72
2022-08-10T21:38:13.224Z,3.10
2022-08-10T21:41:18.689Z,3.42
2022-08-10T21:44:18.130Z,3.88
2022-08-10T21:47:41.691Z,3.83
2022-08-10T21:50:24.742Z,3.50
2022-08-10T21:53:43.859Z,4.85
2022-08-10T21:56:42.671Z,4.32
2022-08-10T21:59:34.772Z,4.78
2022-08-10T22:02:28.218Z,8.35
2022-08-10T22:05:20.211Z,9.68
2022-08-10T22:08:12.079Z,9.75
2022-08-10T22:11:02.570Z,10.98
2022-08-10T22:13:52.880Z,10.02
2022-08-10T22:16:51.226Z,11.23
2022-08-10T22:19:38.224Z,9.07
2022-08-10T22:22:28.506Z,7.75
2022-08-10T22:25:29.628Z,5.35
2022-08-10T22:28:18.150Z,7.25
2022-08-10T22:34:33.291Z,5.55
2022-08-10T22:37:36.631Z,4.95
2022-08-10T22:40:29.202Z,3.90
2022-08-10T22:43:35.859Z,3.85
2022-08-10T22:46:31.072Z,3.60
2022-08-10T22:49:02.359Z,3.67
2022-08-10T22:54:49.641Z,4.32
2022-08-10T22:57:42.009Z,3.70
2022-08-10T23:00:14.349Z,3.72
2022-08-10T23:02:52.000Z,3.92
2022-08-10T23:05:32.288Z,3.67
2022-08-10T23:08:09.474Z,3.60
2022-08-10T23:10:44.709Z,3.78
2022-08-10T23:13:23.542Z,4.32
2022-08-10T23:16:28.380Z,4.22
2022-08-10T23:19:09.446Z,4.63
2022-08-10T23:22:03.195Z,4.82
2022-08-10T23:24:38.823Z,4.60
2022-08-10T23:27:13.208Z,5.25
2022-08-10T23:30:10.237Z,5.43
2022-08-10T23:32:45.396Z,6.55
2022-08-10T23:36:30.925Z,7.00
2022-08-10T23:38:08.741Z,6.97
2022-08-10T23:40:38.396Z,6.83
2022-08-10T23:43:08.755Z,6.57
2022-08-10T23:45:53.639Z,6.25
2022-08-10T23:48:26.229Z,6.18
2022-08-10T23:51:01.573Z,6.22
2022-08-10T23:53:33.661Z,5.93
2022-08-10T23:56:07.521Z,6.28
2022-08-10T23:58:42.081Z,6.40
